Time;durP1;ratioP1;P1;durP2;ratioP2;P2;SDS_P1;SDS_P2;PMS_P1;PMS_P2;Temp;Humidity;BMP_temperature;BMP_pressure;BME280_temperature;BME280_humidity;BME280_pressure;Samples;Min_cycle;Max_cycle;Signal;HPM_P1;HPM_P2
2022/06/23 00:02:22;;;;;;;10.30;9.20;;;25.30;51.90;;;;;;5032693;28;20557;-86
2022/06/23 00:04:55;;;;;;;10.00;9.00;;;25.30;51.50;;;;;;5056455;28;20459;-86
2022/06/23 00:07:25;;;;;;;9.53;8.63;;;25.30;51.80;;;;;;5065278;28;20498;-89
2022/06/23 00:09:53;;;;;;;11.40;10.07;;;25.30;51.60;;;;;;5048623;28;20469;-89
2022/06/23 00:12:26;;;;;;;13.70;9.60;;;25.30;51.50;;;;;;5035956;28;20455;-87
2022/06/23 00:14:55;;;;;;;10.23;8.73;;;25.30;51.50;;;;;;5046513;28;20449;-90
2022/06/23 00:17:25;;;;;;;13.37;9.73;;;25.30;51.80;;;;;;5045895;28;20453;-89
2022/06/23 00:19:55;;;;;;;14.20;9.33;;;25.20;52.20;;;;;;5049291;28;20860;-86
2022/06/23 00:22:25;;;;;;;10.07;9.03;;;25.10;52.10;;;;;;5047909;28;20456;-86
2022/06/23 00:24:56;;;;;;;10.37;9.37;;;25.10;51.80;;;;;;5046067;28;20437;-86
2022/06/23 00:27:28;;;;;;;12.60;9.10;;;25.10;51.80;;;;;;5060507;28;20453;-90
2022/06/23 00:29:58;;;;;;;9.80;8.80;;;25.10;51.60;;;;;;5061128;28;20476;-86
2022/06/23 00:32:26;;;;;;;12.17;9.27;;;25.10;51.40;;;;;;5045580;28;20843;-88
2022/06/23 00:34:59;;;;;;;10.60;8.50;;;25.10;51.80;;;;;;5047848;28;20911;-88
2022/06/23 00:37:26;;;;;;;10.40;9.40;;;25.00;52.00;;;;;;5032808;28;20448;-88
2022/06/23 00:39:56;;;;;;;10.00;8.97;;;25.00;52.20;;;;;;5050533;28;21085;-86
2022/06/23 00:42:26;;;;;;;9.63;8.63;;;25.00;52.40;;;;;;5050677;28;20472;-89
2022/06/23 00:44:58;;;;;;;10.13;9.07;;;24.90;52.10;;;;;;5048349;28;20441;-87
2022/06/23 00:47:31;;;;;;;10.43;9.10;;;24.80;52.00;;;;;;5058255;28;20437;-86
2022/06/23 00:50:05;;;;;;;13.83;10.10;;;24.80;52.20;;;;;;5050088;28;20575;-86
2022/06/23 00:52:36;;;;;;;11.63;9.30;;;24.80;52.40;;;;;;5052899;28;20482;-88
2022/06/23 00:55:11;;;;;;;13.60;9.50;;;24.70;52.30;;;;;;5049132;28;21053;-86
2022/06/23 00:57:43;;;;;;;15.67;9.80;;;24.70;52.30;;;;;;5048950;28;20464;-91
2022/06/23 01:00:17;;;;;;;12.40;9.97;;;24.70;52.30;;;;;;5036235;28;20834;-90
2022/06/23 01:02:49;;;;;;;11.90;9.50;;;24.70;52.40;;;;;;5051974;28;20473;-88
2022/06/23 01:05:21;;;;;;;14.20;10.17;;;24.60;52.90;;;;;;5051304;28;20464;-87
2022/06/23 01:07:58;;;;;;;10.40;9.33;;;24.50;53.40;;;;;;5054300;28;20490;-86
2022/06/23 01:10:33;;;;;;;11.70;9.83;;;24.40;54.30;;;;;;5040027;28;20469;-86
2022/06/23 01:13:05;;;;;;;10.87;9.77;;;24.20;55.10;;;;;;5049105;28;20693;-86
2022/06/23 01:15:39;;;;;;;10.67;9.57;;;24.20;55.00;;;;;;5049904;28;20440;-88
2022/06/23 01:18:16;;;;;;;11.63;10.53;;;24.20;54.70;;;;;;5051960;28;20463;-88
2022/06/23 01:20:52;;;;;;;13.27;10.60;;;24.30;54.20;;;;;;5051064;28;20480;-86
2022/06/23 01:23:49;;;;;;;11.00;8.90;;;24.30;53.60;;;;;;5054217;28;20500;-86
2022/06/23 01:26:44;;;;;;;14.60;9.60;;;24.20;53.60;;;;;;5048514;28;20445;-87
2022/06/23 01:29:16;;;;;;;11.70;9.63;;;24.10;53.30;;;;;;5065691;28;20462;-88
2022/06/23 01:31:47;;;;;;;11.50;9.57;;;24.10;53.40;;;;;;5051334;28;20448;-88
2022/06/23 01:34:25;;;;;;;14.37;9.93;;;24.10;53.30;;;;;;5049002;28;20456;-86
2022/06/23 01:37:00;;;;;;;10.60;9.60;;;24.10;52.70;;;;;;5066686;28;20456;-86
2022/06/23 01:39:35;;;;;;;10.50;9.50;;;24.10;52.80;;;;;;5053142;28;20512;-86
2022/06/23 01:42:12;;;;;;;10.73;9.50;;;24.10;53.00;;;;;;5049411;28;20995;-86
2022/06/23 01:44:47;;;;;;;11.27;10.17;;;24.10;53.00;;;;;;5063364;28;20654;-86
2022/06/23 01:47:21;;;;;;;10.53;9.53;;;24.10;53.00;;;;;;5034657;28;20464;-89
2022/06/23 01:49:53;;;;;;;10.43;9.33;;;24.00;53.00;;;;;;5038909;28;20475;-86
2022/06/23 01:52:21;;;;;;;12.20;10.20;;;24.00;53.40;;;;;;5066237;28;20456;-89
2022/06/23 01:54:57;;;;;;;9.97;9.00;;;23.80;54.00;;;;;;5050265;28;20448;-86
2022/06/23 01:57:30;;;;;;;14.77;10.27;;;23.70;54.00;;;;;;5065628;28;20808;-88
2022/06/23 02:00:08;;;;;;;11.73;10.30;;;23.70;53.70;;;;;;5050247;28;20487;-87
2022/06/23 02:02:46;;;;;;;11.20;10.10;;;23.40;54.90;;;;;;5049605;28;20481;-90
2022/06/23 02:05:22;;;;;;;11.10;9.93;;;23.30;54.70;;;;;;5052181;28;20711;-85
2022/06/23 02:07:54;;;;;;;13.60;10.40;;;23.40;54.50;;;;;;5053236;28;20475;-88
2022/06/23 02:10:27;;;;;;;11.70;10.33;;;23.50;54.00;;;;;;5057921;28;20842;-87
2022/06/23 02:12:58;;;;;;;11.60;9.10;;;23.60;53.90;;;;;;5048969;28;20453;-89
2022/06/23 02:15:32;;;;;;;11.53;9.20;;;23.60;53.40;;;;;;5049018;28;20438;-86
2022/06/23 02:18:06;;;;;;;14.33;10.60;;;23.70;53.30;;;;;;5051143;28;20540;-88
2022/06/23 02:20:43;;;;;;;11.03;9.83;;;23.70;53.20;;;;;;5039827;28;20465;-88
2022/06/23 02:23:17;;;;;;;13.90;10.20;;;23.70;53.50;;;;;;5049963;28;20510;-89
2022/06/23 02:25:53;;;;;;;10.47;9.33;;;23.60;54.00;;;;;;5050107;28;20440;-86
2022/06/23 02:28:31;;;;;;;11.17;9.63;;;23.50;53.50;;;;;;5050560;28;20549;-86
2022/06/23 02:31:07;;;;;;;11.67;10.13;;;23.50;53.20;;;;;;5051752;28;20526;-86
2022/06/23 02:33:39;;;;;;;12.90;10.90;;;23.50;53.60;;;;;;5057155;28;20834;-86
2022/06/23 02:36:20;;;;;;;12.13;10.33;;;23.40;53.60;;;;;;5033497;28;20836;-86
2022/06/23 02:38:51;;;;;;;10.93;9.00;;;23.40;53.30;;;;;;5048360;28;20526;-88
2022/06/23 02:41:22;;;;;;;11.00;9.87;;;23.40;53.00;;;;;;5050543;28;20472;-88
2022/06/23 02:43:55;;;;;;;13.70;11.40;;;23.40;52.80;;;;;;5046962;28;20470;-89
2022/06/23 02:46:54;;;;;;;11.60;10.40;;;23.40;52.90;;;;;;5063577;28;20463;-88
2022/06/23 02:49:38;;;;;;;10.40;8.90;;;23.30;53.30;;;;;;5039702;28;20864;-87
2022/06/23 02:52:18;;;;;;;11.43;10.30;;;23.30;53.80;;;;;;5016221;28;20450;-86
2022/06/23 02:55:09;;;;;;;12.03;9.57;;;23.30;53.80;;;;;;5049060;28;20460;-86
2022/06/23 02:57:43;;;;;;;13.13;10.40;;;23.30;53.70;;;;;;5054632;28;20941;-88
2022/06/23 03:00:19;;;;;;;11.90;9.93;;;23.30;53.80;;;;;;5032467;28;20663;-90
2022/06/23 03:02:56;;;;;;;10.20;9.20;;;23.20;53.70;;;;;;5034027;28;20874;-88
2022/06/23 03:05:32;;;;;;;10.23;9.20;;;23.20;53.60;;;;;;5048895;28;20433;-87
2022/06/23 03:08:04;;;;;;;10.17;8.80;;;23.20;53.50;;;;;;5048797;28;20460;-86
2022/06/23 03:10:37;;;;;;;9.80;8.90;;;23.20;53.70;;;;;;5048082;28;20478;-87
2022/06/23 03:13:09;;;;;;;10.23;9.13;;;23.20;53.50;;;;;;5049913;28;20441;-89
2022/06/23 03:15:41;;;;;;;11.07;9.40;;;23.20;53.80;;;;;;5056363;28;20941;-86
2022/06/23 03:18:19;;;;;;;10.90;9.60;;;23.20;53.80;;;;;;5048465;28;20510;-86
2022/06/23 03:20:53;;;;;;;11.80;9.50;;;23.10;53.70;;;;;;5051886;28;20479;-86
2022/06/23 03:23:27;;;;;;;10.97;9.77;;;23.10;53.50;;;;;;5050462;28;20474;-86
2022/06/23 03:26:01;;;;;;;10.63;9.53;;;23.10;53.40;;;;;;5056739;28;20448;-88
2022/06/23 03:28:47;;;;;;;11.83;9.90;;;23.00;54.20;;;;;;5045070;28;20464;-90
2022/06/23 03:31:22;;;;;;;15.30;9.10;;;22.90;54.50;;;;;;5033323;28;20480;-87
2022/06/23 03:33:54;;;;;;;12.20;10.87;;;22.90;53.80;;;;;;5051817;28;21064;-87
2022/06/23 03:36:26;;;;;;;10.83;9.67;;;22.90;54.10;;;;;;5050706;28;20462;-87
2022/06/23 03:41:49;;;;;;;13.37;11.20;;;22.70;54.40;;;;;;5049528;28;21216;-88
2022/06/23 03:44:21;;;;;;;13.33;9.43;;;22.70;54.50;;;;;;5041748;28;20459;-87
2022/06/23 03:46:52;;;;;;;12.33;11.03;;;22.70;54.00;;;;;;5051014;28;20453;-89
2022/06/23 03:49:41;;;;;;;11.93;9.87;;;22.70;53.90;;;;;;5038388;28;20451;-86
2022/06/23 03:52:21;;;;;;;11.23;9.97;;;22.70;53.80;;;;;;5050422;28;20445;-87
2022/06/23 03:54:54;;;;;;;17.80;10.93;;;22.80;54.30;;;;;;5052012;28;20479;-87
2022/06/23 03:57:28;;;;;;;12.33;11.03;;;22.70;54.50;;;;;;5050289;28;20458;-89
2022/06/23 04:00:07;;;;;;;13.23;11.00;;;22.70;54.60;;;;;;5048318;28;20469;-87
2022/06/23 04:02:41;;;;;;;16.57;11.87;;;22.50;55.00;;;;;;5035574;28;20468;-88
2022/06/23 04:05:20;;;;;;;12.73;11.30;;;22.30;55.90;;;;;;5064007;28;20452;-88
2022/06/23 04:07:52;;;;;;;12.73;10.17;;;22.30;56.00;;;;;;5067040;28;20959;-86
2022/06/23 04:10:31;;;;;;;12.60;9.73;;;22.40;55.50;;;;;;5041051;28;20472;-87
2022/06/23 04:13:06;;;;;;;11.20;10.03;;;22.50;55.30;;;;;;5049537;28;21084;-88
2022/06/23 04:15:37;;;;;;;13.33;9.77;;;22.60;55.00;;;;;;5053798;28;20974;-87
2022/06/23 04:18:08;;;;;;;14.47;10.63;;;22.70;54.60;;;;;;5054184;28;21279;-88
2022/06/23 04:20:39;;;;;;;10.67;9.57;;;22.70;54.90;;;;;;5051755;28;20472;-87
2022/06/23 04:23:14;;;;;;;11.33;10.13;;;22.70;54.90;;;;;;5054723;28;20984;-87
2022/06/23 04:25:48;;;;;;;12.13;10.80;;;22.70;55.50;;;;;;5046431;28;20479;-88
2022/06/23 04:28:26;;;;;;;11.63;8.80;;;22.70;55.00;;;;;;5053130;28;20474;-87
2022/06/23 04:30:56;;;;;;;11.23;8.80;;;22.70;55.20;;;;;;5063215;28;20471;-87
2022/06/23 04:33:25;;;;;;;15.13;10.67;;;22.70;55.30;;;;;;5071519;28;20448;-88
2022/06/23 04:35:58;;;;;;;10.70;9.60;;;22.70;55.50;;;;;;5057539;28;20852;-88
2022/06/23 04:38:33;;;;;;;12.50;10.67;;;22.70;55.40;;;;;;5046034;28;20963;-86
2022/06/23 04:41:05;;;;;;;13.13;9.80;;;22.70;55.40;;;;;;5052994;28;20484;-85
2022/06/23 04:43:38;;;;;;;10.47;9.47;;;22.60;55.80;;;;;;5053604;28;20460;-86
2022/06/23 04:46:12;;;;;;;10.23;8.70;;;22.60;55.80;;;;;;5059903;28;20448;-91
2022/06/23 04:48:55;;;;;;;10.90;9.77;;;22.70;55.60;;;;;;5057244;28;20463;-86
2022/06/23 04:51:31;;;;;;;11.20;10.10;;;22.80;55.10;;;;;;5055551;28;20465;-89
2022/06/23 04:54:04;;;;;;;11.10;9.40;;;22.80;55.40;;;;;;5055688;28;20471;-88
2022/06/23 04:56:39;;;;;;;11.40;10.30;;;22.80;55.50;;;;;;5053050;28;20449;-88
2022/06/23 04:59:19;;;;;;;11.40;10.30;;;22.90;55.40;;;;;;5055689;28;20940;-87
2022/06/23 05:01:49;;;;;;;13.07;10.00;;;22.90;55.30;;;;;;5057944;28;21159;-87
2022/06/23 05:04:20;;;;;;;16.13;10.47;;;22.90;55.20;;;;;;5052318;28;20547;-87
2022/06/23 05:06:52;;;;;;;13.33;11.23;;;22.90;55.30;;;;;;5069231;28;20448;-88
2022/06/23 05:09:24;;;;;;;11.67;10.40;;;22.90;55.30;;;;;;5054944;28;20451;-88
2022/06/23 05:11:53;;;;;;;13.90;10.60;;;22.90;55.30;;;;;;5069458;28;21096;-90
2022/06/23 05:14:30;;;;;;;17.00;11.07;;;22.90;55.30;;;;;;5053630;28;20457;-87
2022/06/23 05:17:05;;;;;;;13.60;10.53;;;22.90;55.20;;;;;;5054810;28;20457;-88
2022/06/23 05:19:37;;;;;;;15.30;10.17;;;22.90;55.30;;;;;;5054177;28;20551;-86
2022/06/23 05:22:16;;;;;;;14.53;10.87;;;22.90;55.50;;;;;;5026820;28;20458;-88
2022/06/23 05:24:45;;;;;;;14.30;11.60;;;22.90;55.50;;;;;;5052750;28;20495;-89
2022/06/23 05:27:23;;;;;;;15.37;10.73;;;22.90;55.80;;;;;;5048803;28;20941;-89
2022/06/23 05:29:55;;;;;;;11.50;10.30;;;22.90;56.00;;;;;;5039464;28;20469;-86
2022/06/23 05:32:29;;;;;;;12.20;11.00;;;22.80;56.20;;;;;;5053428;28;20458;-89
2022/06/23 05:35:05;;;;;;;13.40;10.27;;;22.80;56.50;;;;;;5069762;28;20455;-86
2022/06/23 05:37:38;;;;;;;13.87;11.27;;;22.90;56.50;;;;;;5053467;28;20502;-86
2022/06/23 05:40:16;;;;;;;13.10;10.80;;;23.00;56.30;;;;;;5053181;28;20485;-86
2022/06/23 05:42:48;;;;;;;12.10;10.67;;;23.00;56.80;;;;;;5050100;28;20463;-86
2022/06/23 05:45:21;;;;;;;15.77;11.40;;;23.00;57.10;;;;;;5067786;28;20948;-88
2022/06/23 05:47:48;;;;;;;11.63;10.43;;;23.10;56.90;;;;;;5054024;28;20460;-87
2022/06/23 05:50:21;;;;;;;15.07;11.27;;;23.30;56.80;;;;;;5049543;28;20469;-87
2022/06/23 05:52:55;;;;;;;17.37;11.37;;;23.50;56.60;;;;;;5053504;28;21059;-89
2022/06/23 05:55:32;;;;;;;12.13;10.63;;;23.50;56.50;;;;;;5050311;28;20453;-87
2022/06/23 05:58:06;;;;;;;15.07;9.50;;;23.50;56.50;;;;;;5059301;28;20453;-88
2022/06/23 06:00:38;;;;;;;13.50;10.77;;;23.60;56.30;;;;;;5035358;28;20836;-86
2022/06/23 06:03:11;;;;;;;14.27;10.10;;;23.40;56.60;;;;;;5052189;28;20476;-88
2022/06/23 06:05:42;;;;;;;12.30;10.30;;;23.70;56.60;;;;;;5047954;28;21005;-86
2022/06/23 06:08:17;;;;;;;14.90;11.63;;;23.90;56.20;;;;;;5052933;28;20944;-89
2022/06/23 06:10:44;;;;;;;14.30;9.40;;;24.10;55.60;;;;;;5052129;28;20523;-86
2022/06/23 06:13:17;;;;;;;14.10;11.07;;;24.30;55.30;;;;;;5051694;28;20988;-91
2022/06/23 06:15:48;;;;;;;13.80;9.70;;;24.40;55.10;;;;;;5049726;28;20944;-90
2022/06/23 06:18:25;;;;;;;13.33;11.00;;;24.60;54.30;;;;;;5030801;28;20895;-88
2022/06/23 06:20:54;;;;;;;16.53;9.97;;;24.50;54.40;;;;;;5051217;28;20469;-87
2022/06/23 06:23:33;;;;;;;35.67;10.63;;;24.80;54.30;;;;;;5048053;28;20495;-88
2022/06/23 06:26:00;;;;;;;12.93;10.43;;;24.80;54.10;;;;;;5027794;28;20798;-86
2022/06/23 06:28:30;;;;;;;13.20;9.70;;;24.80;54.40;;;;;;5048279;28;20575;-86
2022/06/23 06:31:07;;;;;;;19.07;10.83;;;24.70;54.50;;;;;;5047863;28;20503;-89
2022/06/23 06:33:54;;;;;;;11.77;8.63;;;24.70;54.50;;;;;;5048418;28;20998;-86
2022/06/23 06:36:25;;;;;;;15.57;10.40;;;24.90;54.10;;;;;;5039346;28;20448;-86
2022/06/23 06:38:57;;;;;;;14.27;9.47;;;25.10;53.60;;;;;;5038450;28;21264;-88
2022/06/23 06:41:24;;;;;;;10.83;8.73;;;25.30;53.60;;;;;;5047523;28;20848;-88
2022/06/23 06:43:51;;;;;;;10.97;9.80;;;25.20;53.50;;;;;;5054265;28;20470;-86
2022/06/23 06:46:18;;;;;;;20.97;9.90;;;25.30;53.50;;;;;;5048546;28;20449;-85
2022/06/23 06:48:45;;;;;;;15.23;8.83;;;25.50;53.20;;;;;;5049225;28;21005;-86
2022/06/23 06:51:18;;;;;;;10.40;8.67;;;25.60;52.80;;;;;;5038926;28;20541;-89
2022/06/23 06:53:49;;;;;;;18.67;9.27;;;25.80;53.30;;;;;;5058358;28;20515;-87
2022/06/23 06:56:23;;;;;;;17.57;10.03;;;26.10;52.70;;;;;;5046670;28;20471;-86
2022/06/23 06:58:57;;;;;;;10.57;8.80;;;26.20;52.20;;;;;;5037046;28;20444;-85
2022/06/23 07:01:26;;;;;;;15.57;8.93;;;26.20;52.10;;;;;;5021102;28;21151;-90
2022/06/23 07:03:55;;;;;;;13.20;9.50;;;26.30;52.30;;;;;;5052312;28;20498;-88
2022/06/23 07:06:34;;;;;;;12.70;9.13;;;26.50;52.20;;;;;;5048020;28;20448;-88
2022/06/23 07:09:07;;;;;;;13.77;9.30;;;26.50;51.80;;;;;;5050924;28;20456;-89
2022/06/23 07:11:44;;;;;;;13.17;9.40;;;26.70;51.70;;;;;;5052850;28;20465;-86
2022/06/23 07:14:18;;;;;;;14.77;9.93;;;26.80;51.30;;;;;;5050156;28;20464;-91
2022/06/23 07:16:49;;;;;;;13.13;9.10;;;26.90;51.50;;;;;;5051611;28;20449;-86
2022/06/23 07:19:23;;;;;;;17.03;9.87;;;27.10;51.00;;;;;;5051698;28;20790;-86
2022/06/23 07:21:53;;;;;;;10.07;9.07;;;27.10;51.20;;;;;;5052349;28;20790;-87
2022/06/23 07:24:27;;;;;;;16.83;10.10;;;27.20;51.60;;;;;;5064580;28;21390;-91
2022/06/23 07:27:03;;;;;;;10.93;9.30;;;27.40;51.10;;;;;;5050347;28;20456;-89
2022/06/23 07:29:38;;;;;;;13.77;8.93;;;27.60;50.90;;;;;;5047940;28;20453;-87
2022/06/23 07:32:19;;;;;;;12.17;9.23;;;27.20;51.30;;;;;;5047283;28;20441;-87
2022/06/23 07:34:52;;;;;;;9.40;8.60;;;27.40;51.80;;;;;;5056415;28;20801;-88
2022/06/23 07:37:29;;;;;;;9.47;8.47;;;27.60;51.50;;;;;;5063865;28;20449;-84
2022/06/23 07:40:01;;;;;;;15.07;8.60;;;27.60;51.50;;;;;;5047252;28;20968;-85
2022/06/23 07:42:45;;;;;;;13.50;8.93;;;27.70;51.50;;;;;;5038038;28;20452;-86
2022/06/23 07:45:16;;;;;;;10.33;9.23;;;27.90;51.40;;;;;;5028935;28;20473;-91
2022/06/23 07:47:43;;;;;;;13.73;9.17;;;27.80;51.30;;;;;;5056646;28;20964;-87
2022/06/23 07:50:11;;;;;;;13.60;8.80;;;27.80;50.90;;;;;;5050126;28;20473;-90
2022/06/23 07:52:38;;;;;;;10.80;9.10;;;28.00;51.00;;;;;;5042518;28;20476;-89
2022/06/23 07:55:07;;;;;;;15.83;8.90;;;28.00;51.10;;;;;;5046930;28;20441;-88
2022/06/23 07:57:36;;;;;;;11.17;8.53;;;28.10;51.00;;;;;;5052902;28;20457;-87
2022/06/23 08:00:07;;;;;;;10.13;9.10;;;28.10;51.00;;;;;;5048719;28;20469;-89
2022/06/23 08:02:46;;;;;;;13.33;9.60;;;28.40;51.30;;;;;;5051837;28;20917;-86
2022/06/23 08:05:17;;;;;;;9.23;8.33;;;28.60;50.80;;;;;;5050596;28;20473;-87
2022/06/23 08:07:45;;;;;;;12.23;8.17;;;28.70;50.60;;;;;;5068752;28;20470;-87
2022/06/23 08:10:17;;;;;;;12.53;8.67;;;28.90;50.30;;;;;;5050204;28;20928;-89
2022/06/23 08:12:55;;;;;;;9.97;8.30;;;29.00;50.30;;;;;;5051992;28;20447;-85
2022/06/23 08:18:24;;;;;;;9.10;7.90;;;29.10;50.00;;;;;;5064027;28;21158;-86
2022/06/23 08:20:56;;;;;;;15.00;8.37;;;29.10;51.00;;;;;;5032435;28;21000;-85
2022/06/23 08:23:24;;;;;;;10.10;7.80;;;29.30;50.40;;;;;;5049443;28;20458;-85
2022/06/23 08:25:53;;;;;;;13.67;8.50;;;29.40;50.50;;;;;;5050710;28;20449;-86
2022/06/23 08:28:22;;;;;;;11.53;7.90;;;29.40;50.30;;;;;;5062375;28;20909;-86
2022/06/23 08:30:49;;;;;;;9.53;6.90;;;29.50;49.90;;;;;;5044119;28;20476;-89
2022/06/23 08:33:16;;;;;;;10.33;7.17;;;29.70;49.70;;;;;;5050430;28;20453;-85
2022/06/23 08:35:47;;;;;;;9.73;7.20;;;29.90;50.10;;;;;;5051184;28;21031;-86
2022/06/23 08:38:21;;;;;;;13.00;7.70;;;30.20;48.70;;;;;;5048155;28;20953;-87
2022/06/23 08:41:20;;;;;;;9.37;5.53;;;30.10;48.70;;;;;;5050927;28;21132;-88
2022/06/23 08:43:56;;;;;;;16.73;6.97;;;30.10;49.00;;;;;;5018839;28;21343;-86
2022/06/23 08:46:35;;;;;;;11.30;5.90;;;30.40;48.50;;;;;;5056515;28;20826;-86
2022/06/23 08:49:07;;;;;;;11.93;5.80;;;30.50;48.10;;;;;;5063520;28;20960;-89
2022/06/23 08:51:51;;;;;;;12.20;6.60;;;30.20;47.50;;;;;;5046812;28;20514;-87
2022/06/23 08:54:22;;;;;;;4.77;4.37;;;30.30;47.70;;;;;;5047450;28;20456;-87
2022/06/23 08:56:55;;;;;;;17.07;6.33;;;30.60;48.00;;;;;;5037687;28;20484;-86
2022/06/23 08:59:38;;;;;;;15.60;5.70;;;30.50;47.20;;;;;;5063575;28;20463;-86
2022/06/23 09:02:12;;;;;;;9.63;6.33;;;30.40;47.40;;;;;;5047393;28;20464;-89
2022/06/23 09:04:50;;;;;;;5.97;5.13;;;30.60;47.70;;;;;;5064634;28;20467;-87
2022/06/23 09:07:30;;;;;;;10.90;4.40;;;30.90;47.40;;;;;;5050131;28;20456;-88
2022/06/23 09:10:07;;;;;;;10.20;4.97;;;31.50;46.80;;;;;;5047986;28;20469;-90
2022/06/23 09:12:39;;;;;;;9.23;5.37;;;31.60;45.20;;;;;;5048342;28;20820;-86
2022/06/23 09:15:26;;;;;;;7.40;4.40;;;31.70;44.50;;;;;;5043076;28;21304;-85
2022/06/23 09:18:27;;;;;;;7.13;4.40;;;31.80;43.90;;;;;;5047127;28;20469;-87
2022/06/23 09:21:25;;;;;;;4.93;3.83;;;31.50;43.60;;;;;;5046894;28;20480;-86
2022/06/23 09:24:25;;;;;;;6.33;4.13;;;31.40;43.70;;;;;;5051564;28;20455;-86
2022/06/23 09:26:59;;;;;;;7.00;4.33;;;31.60;44.00;;;;;;5056812;28;20457;-88
2022/06/23 09:29:43;;;;;;;10.00;4.40;;;31.80;43.10;;;;;;5051520;28;20453;-89
2022/06/23 09:32:19;;;;;;;12.60;3.80;;;31.60;44.10;;;;;;5056495;28;20460;-86
2022/06/23 09:35:05;;;;;;;11.87;3.90;;;31.90;43.00;;;;;;5047450;28;20464;-86
2022/06/23 09:37:50;;;;;;;7.70;3.97;;;32.00;42.90;;;;;;5019373;28;20507;-88
2022/06/23 09:40:36;;;;;;;7.73;4.00;;;32.40;43.70;;;;;;5062688;28;20480;-85
2022/06/23 09:43:36;;;;;;;11.03;4.60;;;32.50;42.40;;;;;;5047447;28;20461;-87
2022/06/23 09:46:28;;;;;;;12.33;4.40;;;32.60;40.70;;;;;;5047676;28;20508;-89
2022/06/23 09:49:19;;;;;;;5.57;3.90;;;32.50;41.50;;;;;;5064005;28;21112;-88
2022/06/23 09:52:09;;;;;;;6.07;3.83;;;32.60;41.10;;;;;;5034045;28;20473;-86
2022/06/23 09:55:00;;;;;;;7.77;3.40;;;32.80;40.20;;;;;;5046138;28;20442;-90
2022/06/23 09:58:08;;;;;;;6.17;4.10;;;33.00;40.30;;;;;;5055709;28;20453;-88
2022/06/23 10:00:43;;;;;;;7.50;4.10;;;33.30;39.70;;;;;;4992284;28;21048;-88
2022/06/23 10:03:25;;;;;;;10.17;4.33;;;33.60;39.40;;;;;;5050208;28;20468;-86
2022/06/23 10:06:06;;;;;;;9.00;3.77;;;33.70;38.20;;;;;;5047612;28;20495;-86
2022/06/23 10:08:45;;;;;;;12.63;4.50;;;33.50;39.10;;;;;;5048614;28;20945;-87
2022/06/23 10:11:27;;;;;;;5.60;3.73;;;32.90;39.60;;;;;;5045749;28;20483;-86
2022/06/23 10:14:09;;;;;;;10.20;3.80;;;32.70;40.70;;;;;;5038034;28;20445;-87
2022/06/23 10:16:50;;;;;;;6.00;3.17;;;32.70;39.80;;;;;;5046281;28;20536;-89
2022/06/23 10:19:31;;;;;;;5.10;3.70;;;33.30;39.40;;;;;;5045438;28;20964;-86
2022/06/23 10:22:14;;;;;;;9.57;4.50;;;33.80;38.50;;;;;;5046235;28;20991;-88
2022/06/23 10:25:00;;;;;;;8.20;4.00;;;33.70;37.90;;;;;;5063022;28;20469;-85
2022/06/23 10:27:45;;;;;;;3.83;2.80;;;33.90;38.20;;;;;;5062758;28;20448;-88
2022/06/23 10:30:18;;;;;;;5.53;4.40;;;34.20;37.60;;;;;;5052877;28;20477;-87
2022/06/23 10:33:09;;;;;;;4.37;2.73;;;34.40;37.20;;;;;;5047577;28;21014;-86
2022/06/23 10:35:50;;;;;;;9.20;4.10;;;34.70;37.30;;;;;;5050315;28;20449;-89
2022/06/23 10:38:35;;;;;;;6.33;4.80;;;34.90;36.60;;;;;;5045207;28;20444;-88
2022/06/23 10:41:25;;;;;;;9.13;3.60;;;35.30;36.00;;;;;;5036382;28;20488;-86
2022/06/23 10:44:03;;;;;;;5.73;3.50;;;35.60;35.30;;;;;;5044544;28;20452;-89
2022/06/23 10:46:34;;;;;;;5.50;3.57;;;35.40;35.10;;;;;;5064320;28;20960;-87
2022/06/23 10:49:31;;;;;;;4.10;3.20;;;34.70;35.10;;;;;;5044020;28;20452;-86
2022/06/23 10:52:24;;;;;;;8.90;3.50;;;34.80;35.60;;;;;;5044056;28;20460;-86
2022/06/23 10:55:26;;;;;;;10.27;3.70;;;34.80;35.50;;;;;;5048208;28;20510;-86
2022/06/23 10:58:15;;;;;;;10.20;3.30;;;35.10;36.20;;;;;;5042951;28;20432;-89
2022/06/23 11:00:52;;;;;;;9.13;3.53;;;35.00;35.00;;;;;;5048066;28;20475;-87
2022/06/23 11:03:39;;;;;;;7.43;3.80;;;34.50;35.30;;;;;;5048094;28;20456;-88
2022/06/23 11:06:30;;;;;;;3.43;3.13;;;34.30;36.00;;;;;;5062366;28;20465;-87
2022/06/23 11:09:22;;;;;;;5.60;3.20;;;34.20;35.90;;;;;;5046486;28;20450;-88
2022/06/23 11:12:01;;;;;;;6.97;3.50;;;34.50;35.40;;;;;;5038593;28;20446;-87
2022/06/23 11:14:43;;;;;;;3.93;2.70;;;34.30;34.60;;;;;;5049664;28;20534;-88
2022/06/23 11:17:20;;;;;;;7.53;3.47;;;34.60;35.60;;;;;;5046534;28;20458;-86
2022/06/23 11:20:02;;;;;;;4.87;3.67;;;35.00;34.90;;;;;;5046381;28;21018;-86
2022/06/23 11:22:37;;;;;;;4.23;3.20;;;35.00;33.30;;;;;;5055252;28;20445;-87
2022/06/23 11:25:20;;;;;;;4.50;3.00;;;35.00;33.30;;;;;;5045570;28;20461;-86
2022/06/23 11:27:56;;;;;;;4.80;3.53;;;34.80;34.00;;;;;;5038108;28;20511;-89
2022/06/23 11:30:30;;;;;;;3.80;3.50;;;34.50;33.70;;;;;;5046721;28;20619;-87
2022/06/23 11:33:19;;;;;;;7.23;3.30;;;34.20;34.00;;;;;;5047077;28;20532;-87
2022/06/23 11:36:10;;;;;;;5.50;3.00;;;34.20;33.60;;;;;;5047731;28;20816;-87
2022/06/23 11:39:09;;;;;;;5.20;3.40;;;34.30;33.80;;;;;;5042041;28;20461;-86
2022/06/23 11:41:58;;;;;;;4.47;3.33;;;34.50;33.20;;;;;;5063164;28;20477;-91
2022/06/23 11:44:43;;;;;;;3.90;3.20;;;34.90;32.60;;;;;;5047348;28;20441;-87
2022/06/23 11:47:15;;;;;;;7.10;3.20;;;35.30;31.90;;;;;;5044675;28;20957;-85
2022/06/23 11:49:54;;;;;;;4.83;3.57;;;35.30;32.20;;;;;;5045266;28;21291;-86
2022/06/23 11:52:40;;;;;;;4.43;3.60;;;35.20;31.40;;;;;;5044821;28;20445;-89
2022/06/23 11:55:24;;;;;;;4.17;3.80;;;35.30;31.80;;;;;;5061654;28;20454;-86
2022/06/23 11:58:14;;;;;;;5.60;3.40;;;35.60;31.70;;;;;;5046447;28;20507;-89
2022/06/23 12:00:54;;;;;;;4.10;3.70;;;35.50;30.90;;;;;;5047929;28;20480;-89
2022/06/23 12:03:33;;;;;;;4.37;3.43;;;36.00;32.00;;;;;;5048408;28;20457;-87
2022/06/23 12:06:11;;;;;;;8.27;3.37;;;35.70;31.00;;;;;;5059648;28;20538;-86
2022/06/23 12:08:57;;;;;;;4.20;3.37;;;35.40;30.00;;;;;;5045976;28;20438;-91
2022/06/23 12:11:25;;;;;;;3.83;3.33;;;35.30;30.50;;;;;;5048034;28;20473;-88
2022/06/23 12:13:54;;;;;;;7.93;4.07;;;35.80;32.00;;;;;;5045447;28;20457;-87
2022/06/23 12:16:22;;;;;;;4.70;3.07;;;36.20;31.30;;;;;;5045591;28;20449;-87
2022/06/23 12:18:54;;;;;;;5.10;3.33;;;36.20;30.70;;;;;;5045685;28;20449;-88
2022/06/23 12:21:32;;;;;;;4.67;3.30;;;36.20;30.60;;;;;;5048075;28;20480;-88
2022/06/23 12:24:07;;;;;;;2.97;2.70;;;35.90;30.70;;;;;;5042083;28;20453;-86
2022/06/23 12:26:40;;;;;;;7.57;3.47;;;35.90;30.90;;;;;;5047579;28;20480;-91
2022/06/23 12:29:18;;;;;;;6.57;3.10;;;36.20;30.40;;;;;;5046581;28;20454;-87
2022/06/23 12:31:54;;;;;;;6.30;3.20;;;36.20;30.90;;;;;;5048361;28;20456;-89
2022/06/23 12:34:31;;;;;;;7.20;3.33;;;36.30;31.00;;;;;;5050465;28;20459;-90
2022/06/23 12:37:14;;;;;;;4.53;3.13;;;36.00;30.00;;;;;;5059191;28;20453;-88
2022/06/23 12:39:48;;;;;;;8.43;3.40;;;35.80;30.30;;;;;;5051095;28;20527;-88
2022/06/23 12:42:22;;;;;;;3.27;2.87;;;35.40;31.10;;;;;;5066660;28;20451;-86
2022/06/23 12:45:05;;;;;;;6.00;3.30;;;35.10;31.70;;;;;;5050232;28;20465;-86
2022/06/23 12:47:42;;;;;;;5.40;3.33;;;35.20;32.20;;;;;;5057489;28;20460;-86
2022/06/23 12:50:29;;;;;;;2.97;2.70;;;35.50;31.80;;;;;;5048331;28;20492;-89
2022/06/23 12:53:13;;;;;;;4.37;2.63;;;36.10;30.40;;;;;;5049307;28;20491;-87
2022/06/23 12:55:51;;;;;;;3.77;3.47;;;36.40;29.90;;;;;;5050074;28;20465;-87
2022/06/23 12:58:29;;;;;;;6.23;3.30;;;36.20;29.20;;;;;;5054211;28;20827;-86
2022/06/23 13:01:09;;;;;;;3.67;2.57;;;36.00;29.70;;;;;;5048594;28;20488;-91
2022/06/23 13:03:50;;;;;;;6.00;2.57;;;35.70;30.50;;;;;;5049920;28;20452;-91
2022/06/23 13:06:24;;;;;;;9.73;2.60;;;35.90;29.90;;;;;;5055850;28;20515;-86
2022/06/23 13:09:01;;;;;;;3.70;2.97;;;36.00;30.40;;;;;;5048544;28;20558;-89
2022/06/23 13:11:38;;;;;;;3.07;2.77;;;35.90;30.20;;;;;;5049640;28;21059;-89
2022/06/23 13:14:13;;;;;;;5.60;3.00;;;35.90;29.80;;;;;;5047248;28;20528;-87
2022/06/23 13:16:48;;;;;;;2.73;2.47;;;36.00;29.90;;;;;;5051384;28;20444;-90
2022/06/23 13:19:23;;;;;;;3.03;2.77;;;36.40;29.50;;;;;;5049536;28;20464;-86
2022/06/23 13:21:51;;;;;;;4.90;3.30;;;36.20;29.70;;;;;;5052536;28;20460;-86
2022/06/23 13:24:21;;;;;;;3.10;2.80;;;36.00;29.60;;;;;;5048319;28;20461;-87
2022/06/23 13:27:03;;;;;;;8.90;2.77;;;36.10;29.80;;;;;;5052277;28;20465;-89
2022/06/23 13:29:37;;;;;;;4.50;2.40;;;36.40;29.60;;;;;;5051225;28;20450;-86
2022/06/23 13:32:12;;;;;;;3.23;2.70;;;36.60;28.50;;;;;;5049746;28;20461;-87